Time;durP1;ratioP1;P1;durP2;ratioP2;P2;SDS_P1;SDS_P2;PMS_P1;PMS_P2;Temp;Humidity;BMP_temperature;BMP_pressure;BME280_temperature;BME280_humidity;BME280_pressure;Samples;Min_cycle;Max_cycle;Signal;HPM_P1;HPM_P2
2022/08/04 00:00:43;;;;;;;;;;;24.20;75.80;;;;;;1998525;28;19906;-70
2022/08/04 00:01:41;;;;;;;;;;;24.20;75.70;;;;;;1998444;28;20005;-70
2022/08/04 00:02:47;;;;;;;;;;;24.10;75.70;;;;;;1998491;28;19910;-71
2022/08/04 00:03:56;;;;;;;;;;;24.20;75.80;;;;;;1998421;28;20357;-70
2022/08/04 00:05:00;;;;;;;;;;;24.20;75.80;;;;;;1998445;28;19929;-70
2022/08/04 00:06:14;;;;;;;;;;;24.20;75.80;;;;;;1989972;28;19936;-70
2022/08/04 00:07:15;;;;;;;;;;;24.20;75.90;;;;;;1991634;28;19905;-70
2022/08/04 00:08:19;;;;;;;;;;;24.10;75.80;;;;;;1998493;28;19912;-70
2022/08/04 00:09:31;;;;;;;;;;;24.10;75.70;;;;;;1998370;28;19916;-70
2022/08/04 00:10:30;;;;;;;;;;;24.20;75.70;;;;;;1998452;28;20210;-71
2022/08/04 00:11:30;;;;;;;;;;;24.20;75.80;;;;;;1998358;28;19912;-69
2022/08/04 00:12:30;;;;;;;;;;;24.20;75.90;;;;;;1998324;28;20284;-70
2022/08/04 00:13:33;;;;;;;;;;;24.10;75.70;;;;;;1998480;28;20269;-70
2022/08/04 00:14:34;;;;;;;;;;;24.20;75.80;;;;;;1998455;28;19910;-70
2022/08/04 00:15:33;;;;;;;;;;;24.20;75.70;;;;;;1998059;28;19918;-70
2022/08/04 00:16:34;;;;;;;;;;;24.20;75.80;;;;;;1998513;28;20280;-71
2022/08/04 00:17:37;;;;;;;;;;;24.20;75.80;;;;;;1998327;28;20373;-70
2022/08/04 00:18:44;;;;;;;;;;;24.20;75.70;;;;;;1998630;28;20380;-72
2022/08/04 00:19:46;;;;;;;;;;;24.20;75.80;;;;;;1989980;28;19906;-71
2022/08/04 00:20:45;;;;;;;;;;;24.20;75.90;;;;;;1989933;28;19957;-71
2022/08/04 00:21:59;;;;;;;;;;;24.20;75.80;;;;;;1998326;28;20320;-69
2022/08/04 00:22:59;;;;;;;;;;;24.20;75.80;;;;;;1998417;28;19905;-70
2022/08/04 00:23:58;;;;;;;;;;;24.20;75.80;;;;;;1998392;28;19906;-71
2022/08/04 00:25:00;;;;;;;;;;;24.20;75.80;;;;;;1998370;28;19906;-70
2022/08/04 00:25:59;;;;;;;;;;;24.20;75.80;;;;;;1998235;28;20333;-70
2022/08/04 00:26:58;;;;;;;;;;;24.20;75.80;;;;;;1998242;28;19918;-72
2022/08/04 00:27:59;;;;;;;;;;;24.20;75.80;;;;;;1998350;28;19906;-70
2022/08/04 00:28:57;;;;;;;;;;;24.20;75.70;;;;;;1998219;28;19968;-69
2022/08/04 00:29:56;;;;;;;;;;;24.20;75.80;;;;;;1998272;28;19909;-71
2022/08/04 00:30:55;;;;;;;;;;;24.20;75.70;;;;;;1998206;28;19905;-72
2022/08/04 00:31:56;;;;;;;;;;;24.20;76.50;;;;;;1998315;28;20365;-69
2022/08/04 00:32:56;;;;;;;;;;;24.20;75.80;;;;;;1998148;28;19906;-70
2022/08/04 00:33:55;;;;;;;;;;;24.20;75.90;;;;;;1998125;28;19962;-71
2022/08/04 00:34:54;;;;;;;;;;;24.10;75.80;;;;;;1998282;28;19992;-69
2022/08/04 00:35:53;;;;;;;;;;;24.10;75.80;;;;;;1998289;28;20246;-70
2022/08/04 00:36:54;;;;;;;;;;;24.10;75.80;;;;;;1998213;28;19906;-70
2022/08/04 00:37:54;;;;;;;;;;;24.20;75.80;;;;;;1998161;28;19996;-70
2022/08/04 00:38:53;;;;;;;;;;;24.20;75.80;;;;;;1998236;28;19906;-70
2022/08/04 00:39:54;;;;;;;;;;;24.20;75.70;;;;;;1989804;28;19969;-71
2022/08/04 00:40:59;;;;;;;;;;;24.20;75.80;;;;;;1989210;28;19949;-71
2022/08/04 00:42:15;;;;;;;;;;;24.10;75.70;;;;;;1989517;28;20010;-70
2022/08/04 00:43:33;;;;;;;;;;;24.20;75.80;;;;;;1998175;28;19912;-70
2022/08/04 00:44:38;;;;;;;;;;;24.10;75.60;;;;;;1998256;28;19964;-71
2022/08/04 00:45:39;;;;;;;;;;;24.20;75.70;;;;;;1998100;28;20376;-69
2022/08/04 00:46:43;;;;;;;;;;;24.20;75.80;;;;;;1998198;28;19906;-69
2022/08/04 00:48:00;;;;;;;;;;;24.20;75.70;;;;;;1998118;28;19905;-69
2022/08/04 00:49:08;;;;;;;;;;;24.20;75.70;;;;;;1998202;28;19912;-70
2022/08/04 00:50:08;;;;;;;;;;;24.10;75.60;;;;;;1998029;28;19925;-70
2022/08/04 00:51:14;;;;;;;;;;;24.10;75.60;;;;;;1998027;28;20257;-70
2022/08/04 00:52:15;;;;;;;;;;;24.10;75.60;;;;;;1998050;28;19950;-69
2022/08/04 00:53:30;;;;;;;;;;;24.10;75.60;;;;;;1997945;28;20000;-70
2022/08/04 00:54:55;;;;;;;;;;;24.10;75.70;;;;;;1998124;28;20277;-70
2022/08/04 00:56:12;;;;;;;;;;;24.10;75.70;;;;;;1982465;28;20314;-69
2022/08/04 00:57:26;;;;;;;;;;;24.10;75.70;;;;;;1989698;28;19950;-70
2022/08/04 00:58:50;;;;;;;;;;;24.10;75.70;;;;;;1991317;28;19906;-70
2022/08/04 01:00:02;;;;;;;;;;;24.10;75.70;;;;;;1998135;28;19906;-70
2022/08/04 01:01:02;;;;;;;;;;;24.10;75.70;;;;;;1998011;28;19986;-70
2022/08/04 01:02:33;;;;;;;;;;;24.10;75.70;;;;;;1998120;28;20316;-70
2022/08/04 01:03:31;;;;;;;;;;;24.10;75.70;;;;;;1989333;28;19906;-70
2022/08/04 01:04:56;;;;;;;;;;;24.10;75.70;;;;;;1994333;28;19906;-70
2022/08/04 01:05:54;;;;;;;;;;;24.10;75.60;;;;;;1997677;28;20412;-69
2022/08/04 01:07:22;;;;;;;;;;;24.10;75.70;;;;;;1997973;28;19968;-70
2022/08/04 01:08:21;;;;;;;;;;;24.10;75.70;;;;;;1993287;28;19980;-70
2022/08/04 01:09:22;;;;;;;;;;;24.10;75.60;;;;;;1989487;28;19906;-70
2022/08/04 01:10:36;;;;;;;;;;;24.10;75.60;;;;;;1989470;28;20342;-70
2022/08/04 01:11:35;;;;;;;;;;;24.10;75.60;;;;;;1997821;28;20036;-70
2022/08/04 01:12:46;;;;;;;;;;;24.10;75.60;;;;;;1998054;28;20376;-70
2022/08/04 01:13:53;;;;;;;;;;;24.10;75.60;;;;;;1998099;28;19909;-70
2022/08/04 01:14:57;;;;;;;;;;;24.10;75.60;;;;;;1998105;28;19914;-70
2022/08/04 01:15:59;;;;;;;;;;;24.10;75.60;;;;;;1997746;28;19921;-70
2022/08/04 01:17:06;;;;;;;;;;;24.10;75.60;;;;;;1989502;28;19912;-71
2022/08/04 01:18:05;;;;;;;;;;;24.10;75.60;;;;;;1990093;28;19906;-70
2022/08/04 01:19:10;;;;;;;;;;;24.10;75.60;;;;;;1997887;28;19997;-70
2022/08/04 01:20:10;;;;;;;;;;;24.10;75.60;;;;;;1997832;28;20001;-70
2022/08/04 01:21:08;;;;;;;;;;;24.10;75.60;;;;;;1989364;28;19917;-71
2022/08/04 01:22:16;;;;;;;;;;;24.10;75.60;;;;;;1989612;28;19952;-70
2022/08/04 01:23:38;;;;;;;;;;;24.10;75.50;;;;;;1997940;28;20368;-70
2022/08/04 01:24:45;;;;;;;;;;;24.10;75.50;;;;;;1997895;28;19906;-70
2022/08/04 01:25:44;;;;;;;;;;;24.10;75.50;;;;;;1997763;28;19909;-70
2022/08/04 01:27:01;;;;;;;;;;;24.10;75.60;;;;;;1997783;28;19906;-70
2022/08/04 01:28:38;;;;;;;;;;;24.10;75.60;;;;;;1989411;28;19906;-70
2022/08/04 01:29:39;;;;;;;;;;;24.10;75.60;;;;;;1970582;29;19942;-70
2022/08/04 01:30:40;;;;;;;;;;;24.10;75.60;;;;;;1966102;29;19906;-70
2022/08/04 01:31:45;;;;;;;;;;;24.10;75.60;;;;;;1966183;29;20466;-70
2022/08/04 01:32:50;;;;;;;;;;;24.10;75.60;;;;;;1973905;29;20080;-71
2022/08/04 01:33:51;;;;;;;;;;;24.10;75.60;;;;;;1973724;29;20462;-70
2022/08/04 01:34:58;;;;;;;;;;;24.10;75.60;;;;;;1974236;28;20398;-70
2022/08/04 01:36:00;;;;;;;;;;;24.10;75.60;;;;;;1998008;28;19902;-71
2022/08/04 01:37:10;;;;;;;;;;;24.10;75.60;;;;;;1997964;28;19917;-72
2022/08/04 01:38:15;;;;;;;;;;;24.10;75.60;;;;;;1997966;28;20383;-71
2022/08/04 01:40:32;;;;;;;;;;;24.10;75.70;;;;;;1997709;28;19925;-70
2022/08/04 01:41:30;;;;;;;;;;;24.10;75.70;;;;;;1997823;28;20242;-70
2022/08/04 01:42:33;;;;;;;;;;;24.10;75.70;;;;;;1997907;28;19913;-71
2022/08/04 01:43:32;;;;;;;;;;;24.10;75.60;;;;;;1997812;28;19906;-70
2022/08/04 01:44:34;;;;;;;;;;;24.10;75.60;;;;;;1997796;28;19905;-69
2022/08/04 01:45:35;;;;;;;;;;;24.10;75.70;;;;;;1997662;28;19984;-70
2022/08/04 01:46:34;;;;;;;;;;;24.10;75.60;;;;;;1997728;28;20004;-69
2022/08/04 01:47:36;;;;;;;;;;;24.10;75.60;;;;;;1997896;28;19905;-69
2022/08/04 01:48:37;;;;;;;;;;;24.10;75.60;;;;;;1997840;28;19906;-69
2022/08/04 01:49:36;;;;;;;;;;;24.10;75.60;;;;;;1997681;28;19928;-70
2022/08/04 01:50:35;;;;;;;;;;;24.10;75.60;;;;;;1997652;28;19912;-70
2022/08/04 01:51:38;;;;;;;;;;;24.10;75.60;;;;;;1997710;28;19960;-69
2022/08/04 01:52:39;;;;;;;;;;;24.10;75.60;;;;;;1997470;28;19906;-69
2022/08/04 01:53:39;;;;;;;;;;;24.10;75.60;;;;;;1997677;28;19918;-69
2022/08/04 01:54:39;;;;;;;;;;;24.10;75.60;;;;;;1997533;28;19981;-69
2022/08/04 01:55:38;;;;;;;;;;;24.10;75.60;;;;;;1997789;28;19909;-69
2022/08/04 01:56:36;;;;;;;;;;;24.00;75.50;;;;;;1997661;28;19940;-69
2022/08/04 01:57:45;;;;;;;;;;;24.10;75.60;;;;;;1997665;28;19936;-69
2022/08/04 01:58:44;;;;;;;;;;;24.10;75.60;;;;;;1997705;28;19906;-69
2022/08/04 01:59:44;;;;;;;;;;;24.10;75.60;;;;;;1997714;28;19906;-72
2022/08/04 02:00:45;;;;;;;;;;;24.10;75.70;;;;;;1997539;28;19959;-71
2022/08/04 02:01:44;;;;;;;;;;;24.00;75.60;;;;;;1997622;28;20269;-71
2022/08/04 02:02:43;;;;;;;;;;;24.10;75.70;;;;;;1997760;28;19906;-70
2022/08/04 02:03:43;;;;;;;;;;;24.10;75.60;;;;;;1997615;28;20297;-70
2022/08/04 02:04:42;;;;;;;;;;;24.10;75.60;;;;;;1997706;28;19912;-71
2022/08/04 02:05:41;;;;;;;;;;;24.10;75.60;;;;;;1997568;28;19909;-71
2022/08/04 02:06:44;;;;;;;;;;;24.10;75.60;;;;;;1997505;28;20005;-71
2022/08/04 02:08:00;;;;;;;;;;;24.10;75.60;;;;;;1997615;28;19906;-71
2022/08/04 02:09:03;;;;;;;;;;;24.10;75.60;;;;;;1997557;28;19912;-71
2022/08/04 02:10:04;;;;;;;;;;;24.10;75.60;;;;;;1997588;28;20277;-71
2022/08/04 02:11:06;;;;;;;;;;;24.10;75.60;;;;;;1997558;28;20016;-71
2022/08/04 02:12:23;;;;;;;;;;;24.10;75.60;;;;;;1997484;28;19996;-71
2022/08/04 02:13:42;;;;;;;;;;;24.10;75.60;;;;;;1997581;28;19933;-70
2022/08/04 02:14:48;;;;;;;;;;;24.10;75.60;;;;;;1997029;28;19925;-70
2022/08/04 02:16:03;;;;;;;;;;;24.10;75.60;;;;;;1997355;28;20004;-70
2022/08/04 02:17:09;;;;;;;;;;;24.10;75.70;;;;;;1997460;28;19915;-71
2022/08/04 02:18:26;;;;;;;;;;;24.00;75.60;;;;;;1997561;28;20272;-71
2022/08/04 02:19:43;;;;;;;;;;;24.00;75.60;;;;;;1997836;28;19964;-71
2022/08/04 02:20:42;;;;;;;;;;;24.00;75.70;;;;;;1997492;28;19906;-70
2022/08/04 02:21:44;;;;;;;;;;;24.10;75.80;;;;;;1997295;28;19912;-70
2022/08/04 02:22:49;;;;;;;;;;;24.10;75.80;;;;;;1997473;28;19910;-70
2022/08/04 02:23:50;;;;;;;;;;;24.00;75.70;;;;;;1997523;28;19916;-70
2022/08/04 02:24:49;;;;;;;;;;;24.10;75.80;;;;;;1997409;28;19959;-70
2022/08/04 02:25:57;;;;;;;;;;;24.00;75.70;;;;;;1997442;28;19945;-69
2022/08/04 02:26:56;;;;;;;;;;;24.10;75.70;;;;;;1997567;28;19906;-70
2022/08/04 02:28:00;;;;;;;;;;;24.00;75.60;;;;;;1997517;28;19906;-71
2022/08/04 02:29:01;;;;;;;;;;;24.10;75.70;;;;;;1996832;28;20399;-70
2022/08/04 02:30:03;;;;;;;;;;;24.10;75.70;;;;;;1996842;28;19905;-70
2022/08/04 02:31:14;;;;;;;;;;;24.00;75.60;;;;;;1997314;28;19906;-70
2022/08/04 02:32:24;;;;;;;;;;;24.00;75.70;;;;;;1997465;28;19912;-70
2022/08/04 02:33:25;;;;;;;;;;;24.00;75.70;;;;;;1997391;28;19992;-70
2022/08/04 02:34:23;;;;;;;;;;;24.00;75.70;;;;;;1997359;28;19921;-70
2022/08/04 02:35:26;;;;;;;;;;;24.00;75.70;;;;;;1988969;28;19993;-70
2022/08/04 02:36:44;;;;;;;;;;;24.00;75.70;;;;;;1989122;28;20202;-70
2022/08/04 02:37:46;;;;;;;;;;;24.00;75.70;;;;;;1997395;28;20338;-70
2022/08/04 02:38:48;;;;;;;;;;;24.00;75.70;;;;;;1997390;28;19928;-70
2022/08/04 02:39:49;;;;;;;;;;;24.00;75.70;;;;;;1997244;28;20383;-69
2022/08/04 02:40:47;;;;;;;;;;;24.00;75.70;;;;;;1997365;28;19952;-70
2022/08/04 02:41:47;;;;;;;;;;;24.00;75.70;;;;;;1997461;28;19949;-70
2022/08/04 02:42:45;;;;;;;;;;;24.00;75.70;;;;;;1997305;28;19906;-71
2022/08/04 02:43:47;;;;;;;;;;;24.00;75.70;;;;;;1997338;28;20349;-70
2022/08/04 02:44:49;;;;;;;;;;;24.00;75.70;;;;;;1997224;28;19909;-70
2022/08/04 02:45:50;;;;;;;;;;;24.00;75.80;;;;;;1997265;28;19913;-69
2022/08/04 02:46:50;;;;;;;;;;;24.00;75.70;;;;;;1988903;28;20312;-71
2022/08/04 02:47:49;;;;;;;;;;;24.00;75.70;;;;;;1988915;28;19917;-70
2022/08/04 02:48:48;;;;;;;;;;;24.00;75.80;;;;;;1997062;28;19992;-70
2022/08/04 02:49:49;;;;;;;;;;;24.00;75.80;;;;;;1997110;28;20393;-70
2022/08/04 02:50:49;;;;;;;;;;;24.00;75.80;;;;;;1997202;28;19913;-69
2022/08/04 02:51:55;;;;;;;;;;;24.00;75.80;;;;;;1997347;28;20200;-69
2022/08/04 02:52:55;;;;;;;;;;;24.00;75.80;;;;;;1997365;28;19912;-69
2022/08/04 02:53:55;;;;;;;;;;;24.00;75.80;;;;;;1997123;28;19913;-69
2022/08/04 02:54:55;;;;;;;;;;;24.00;75.80;;;;;;1997192;28;19913;-69
2022/08/04 02:55:54;;;;;;;;;;;24.00;75.80;;;;;;1988826;28;19965;-69
2022/08/04 02:56:54;;;;;;;;;;;24.00;75.70;;;;;;1988982;28;20416;-69
2022/08/04 02:57:53;;;;;;;;;;;24.00;75.70;;;;;;1997190;28;20273;-69
2022/08/04 02:58:55;;;;;;;;;;;24.00;75.80;;;;;;1997211;28;19952;-69
2022/08/04 02:59:59;;;;;;;;;;;24.00;75.70;;;;;;1997127;28;19906;-69
2022/08/04 03:00:58;;;;;;;;;;;24.00;75.70;;;;;;1997348;28;19906;-70
2022/08/04 03:01:56;;;;;;;;;;;24.00;75.80;;;;;;1997128;28;19957;-70
2022/08/04 03:03:06;;;;;;;;;;;24.00;75.80;;;;;;1997191;28;19906;-70
2022/08/04 03:04:14;;;;;;;;;;;24.00;75.70;;;;;;1997065;28;19906;-70
2022/08/04 03:05:17;;;;;;;;;;;24.00;75.80;;;;;;1997181;28;19980;-70
2022/08/04 03:06:27;;;;;;;;;;;24.00;75.80;;;;;;1988711;28;19984;-68
2022/08/04 03:07:47;;;;;;;;;;;24.00;75.80;;;;;;1989966;28;19913;-70
2022/08/04 03:08:49;;;;;;;;;;;24.00;75.70;;;;;;1997135;28;20334;-70
2022/08/04 03:09:59;;;;;;;;;;;24.00;75.70;;;;;;1997089;28;19906;-70
2022/08/04 03:11:10;;;;;;;;;;;24.00;75.70;;;;;;1997002;28;19906;-69
2022/08/04 03:12:20;;;;;;;;;;;24.00;75.70;;;;;;1997083;28;19910;-70
2022/08/04 03:13:44;;;;;;;;;;;24.00;75.80;;;;;;1988721;28;19956;-70
2022/08/04 03:15:06;;;;;;;;;;;24.00;75.70;;;;;;1991908;28;19914;-70
2022/08/04 03:16:22;;;;;;;;;;;24.00;75.80;;;;;;1993883;28;19909;-69
2022/08/04 03:17:40;;;;;;;;;;;24.00;75.80;;;;;;1997070;28;19906;-69
2022/08/04 03:18:55;;;;;;;;;;;24.00;75.80;;;;;;1997190;28;20416;-69
2022/08/04 03:19:53;;;;;;;;;;;24.00;75.70;;;;;;1996940;28;19913;-69
2022/08/04 03:21:02;;;;;;;;;;;24.00;75.80;;;;;;1997056;28;19913;-70
2022/08/04 03:22:20;;;;;;;;;;;24.00;75.80;;;;;;1997149;28;19932;-70
2022/08/04 03:23:18;;;;;;;;;;;24.00;75.80;;;;;;1997294;28;20428;-71
2022/08/04 03:24:39;;;;;;;;;;;24.00;75.80;;;;;;1988693;28;19906;-70
2022/08/04 03:25:37;;;;;;;;;;;24.00;75.80;;;;;;1991490;28;20302;-70
2022/08/04 03:26:41;;;;;;;;;;;24.00;75.80;;;;;;1997095;28;19906;-72
2022/08/04 03:27:46;;;;;;;;;;;24.00;75.80;;;;;;1997307;28;19910;-70
2022/08/04 03:29:03;;;;;;;;;;;24.00;75.80;;;;;;1988654;28;19913;-70
2022/08/04 03:30:06;;;;;;;;;;;24.00;75.80;;;;;;1990762;28;20008;-70
2022/08/04 03:31:23;;;;;;;;;;;24.00;75.80;;;;;;1996604;28;19968;-69
2022/08/04 03:32:33;;;;;;;;;;;24.00;75.90;;;;;;1997209;28;19929;-70
2022/08/04 03:34:04;;;;;;;;;;;24.00;75.90;;;;;;1997424;28;19906;-70
2022/08/04 03:35:22;;;;;;;;;;;23.90;75.70;;;;;;1988706;28;19957;-70
2022/08/04 03:36:39;;;;;;;;;;;24.00;75.90;;;;;;1996865;28;20383;-70
2022/08/04 03:37:52;;;;;;;;;;;24.00;75.80;;;;;;1997400;28;19912;-70
2022/08/04 03:38:53;;;;;;;;;;;24.00;75.90;;;;;;1988787;28;19958;-70
2022/08/04 03:40:01;;;;;;;;;;;24.00;75.90;;;;;;1989159;28;19942;-70
2022/08/04 03:41:02;;;;;;;;;;;24.00;75.80;;;;;;1997066;28;19906;-70
2022/08/04 03:42:00;;;;;;;;;;;24.00;75.80;;;;;;1997205;28;20273;-70
2022/08/04 03:43:13;;;;;;;;;;;24.00;75.80;;;;;;1997227;28;19906;-71
2022/08/04 03:44:34;;;;;;;;;;;24.00;75.80;;;;;;1997373;28;20393;-70
2022/08/04 03:45:36;;;;;;;;;;;23.90;75.80;;;;;;1994021;28;19912;-69
2022/08/04 03:46:54;;;;;;;;;;;24.00;75.90;;;;;;1988776;28;19906;-70
2022/08/04 03:48:12;;;;;;;;;;;24.00;75.90;;;;;;1987495;28;20030;-71
2022/08/04 03:49:29;;;;;;;;;;;24.00;75.90;;;;;;1997504;28;20364;-72
2022/08/04 03:50:30;;;;;;;;;;;24.00;75.80;;;;;;1997464;28;20280;-70
2022/08/04 03:53:16;;;;;;;;;;;24.00;75.90;;;;;;1997086;28;19905;-70
2022/08/04 03:54:26;;;;;;;;;;;24.00;75.70;;;;;;1986394;28;19954;-71
2022/08/04 03:55:35;;;;;;;;;;;24.00;75.70;;;;;;1991062;28;19906;-69
2022/08/04 03:56:41;;;;;;;;;;;24.00;75.80;;;;;;1997692;28;19906;-69
2022/08/04 03:57:46;;;;;;;;;;;24.00;75.80;;;;;;1997290;28;19973;-69
2022/08/04 03:58:44;;;;;;;;;;;24.00;75.80;;;;;;1997244;28;20068;-69
2022/08/04 04:00:01;;;;;;;;;;;24.00;75.80;;;;;;1988739;28;19907;-69
2022/08/04 04:01:06;;;;;;;;;;;24.00;75.80;;;;;;1990798;28;19913;-69
2022/08/04 04:02:11;;;;;;;;;;;24.00;75.70;;;;;;1997480;28;19913;-70
2022/08/04 04:03:29;;;;;;;;;;;23.90;75.70;;;;;;1989248;28;19992;-70
2022/08/04 04:04:28;;;;;;;;;;;24.00;75.80;;;;;;1983010;28;19911;-69
2022/08/04 04:05:26;;;;;;;;;;;24.00;75.70;;;;;;1986910;28;19949;-69
2022/08/04 04:06:30;;;;;;;;;;;24.00;75.70;;;;;;1989206;28;19989;-69
2022/08/04 04:07:48;;;;;;;;;;;23.90;75.70;;;;;;1997676;28;19905;-70
2022/08/04 04:09:01;;;;;;;;;;;24.00;75.70;;;;;;1997902;28;20357;-70
2022/08/04 04:10:06;;;;;;;;;;;24.00;75.70;;;;;;2001659;28;19910;-69
2022/08/04 04:11:11;;;;;;;;;;;24.00;75.70;;;;;;2006257;28;19933;-70
2022/08/04 04:12:27;;;;;;;;;;;24.00;75.70;;;;;;1997873;28;19912;-70
2022/08/04 04:13:26;;;;;;;;;;;24.00;75.70;;;;;;2000241;28;20078;-70
2022/08/04 04:14:43;;;;;;;;;;;24.00;75.70;;;;;;2006413;28;19998;-69
2022/08/04 04:15:42;;;;;;;;;;;24.00;75.70;;;;;;2006720;28;19969;-70
2022/08/04 04:16:43;;;;;;;;;;;24.00;75.70;;;;;;1999721;28;19929;-70
2022/08/04 04:17:45;;;;;;;;;;;24.00;76.40;;;;;;1999806;28;19913;-70
2022/08/04 04:18:56;;;;;;;;;;;24.00;75.70;;;;;;2007784;28;19894;-69
2022/08/04 04:20:03;;;;;;;;;;;24.00;75.70;;;;;;2007609;28;19953;-70
2022/08/04 04:21:26;;;;;;;;;;;24.00;75.70;;;;;;2006586;28;19913;-71
2022/08/04 04:22:34;;;;;;;;;;;24.00;75.70;;;;;;2004884;28;19929;-70
2022/08/04 04:23:52;;;;;;;;;;;24.00;75.80;;;;;;2006869;28;19893;-70
2022/08/04 04:24:54;;;;;;;;;;;24.00;75.70;;;;;;2007960;28;19898;-69
2022/08/04 04:26:01;;;;;;;;;;;24.00;75.80;;;;;;2007381;28;19960;-70
2022/08/04 04:27:08;;;;;;;;;;;24.00;75.70;;;;;;2007821;28;19897;-69
2022/08/04 04:28:18;;;;;;;;;;;24.00;75.80;;;;;;2007644;28;19894;-69
2022/08/04 04:29:25;;;;;;;;;;;24.00;75.70;;;;;;2007857;28;19894;-69
2022/08/04 04:30:45;;;;;;;;;;;23.90;75.70;;;;;;2007503;28;19905;-69
2022/08/04 04:32:04;;;;;;;;;;;24.00;75.70;;;;;;2007881;28;19890;-70
2022/08/04 04:33:09;;;;;;;;;;;24.00;75.80;;;;;;2007121;28;19925;-70
2022/08/04 04:34:07;;;;;;;;;;;24.00;75.70;;;;;;2002624;28;19941;-70
2022/08/04 04:35:18;;;;;;;;;;;24.00;75.70;;;;;;2007192;28;19905;-69
2022/08/04 04:36:26;;;;;;;;;;;24.00;75.70;;;;;;2007967;28;19925;-70
2022/08/04 04:37:24;;;;;;;;;;;24.00;75.60;;;;;;2007801;28;19893;-69
2022/08/04 04:38:38;;;;;;;;;;;24.00;75.70;;;;;;2007946;28;19917;-70
2022/08/04 04:39:39;;;;;;;;;;;24.00;75.70;;;;;;2008152;28;19908;-68
2022/08/04 04:40:43;;;;;;;;;;;24.00;75.60;;;;;;1999468;28;19898;-68
2022/08/04 04:42:01;;;;;;;;;;;23.90;75.50;;;;;;1999556;28;19969;-68
2022/08/04 04:43:18;;;;;;;;;;;24.00;75.70;;;;;;1998985;28;19917;-69
2022/08/04 04:44:20;;;;;;;;;;;24.00;75.70;;;;;;2000929;28;19906;-69
2022/08/04 04:45:27;;;;;;;;;;;23.90;75.50;;;;;;2006091;28;19932;-70
2022/08/04 04:46:33;;;;;;;;;;;23.90;75.60;;;;;;2005753;28;19906;-70
2022/08/04 04:47:37;;;;;;;;;;;23.90;75.40;;;;;;2004059;28;20015;-70
2022/08/04 04:48:45;;;;;;;;;;;24.00;75.70;;;;;;1998497;28;19912;-70
2022/08/04 04:49:55;;;;;;;;;;;24.00;75.70;;;;;;1998432;28;19906;-70
2022/08/04 04:51:14;;;;;;;;;;;24.00;75.70;;;;;;1998250;28;19906;-70
2022/08/04 04:52:31;;;;;;;;;;;24.00;75.60;;;;;;1998305;28;20276;-71
2022/08/04 04:53:52;;;;;;;;;;;24.00;75.60;;;;;;1998301;28;19996;-70
2022/08/04 04:54:54;;;;;;;;;;;23.90;75.60;;;;;;1995072;28;20016;-71
2022/08/04 04:55:58;;;;;;;;;;;24.00;75.60;;;;;;1998178;28;20068;-70
2022/08/04 04:57:03;;;;;;;;;;;23.90;75.60;;;;;;1998201;28;19906;-70
2022/08/04 04:58:01;;;;;;;;;;;24.00;75.60;;;;;;1998273;28;19906;-69
2022/08/04 04:59:01;;;;;;;;;;;24.00;75.60;;;;;;1998225;28;20353;-69
2022/08/04 05:00:07;;;;;;;;;;;24.00;75.60;;;;;;1998233;28;19905;-70
2022/08/04 05:01:24;;;;;;;;;;;24.00;75.60;;;;;;1998255;28;20242;-70
2022/08/04 05:02:28;;;;;;;;;;;24.00;75.50;;;;;;1998115;28;19905;-70
2022/08/04 05:03:26;;;;;;;;;;;24.00;75.60;;;;;;1998022;28;19910;-70
2022/08/04 05:04:31;;;;;;;;;;;24.00;75.60;;;;;;1989549;28;20301;-70
2022/08/04 05:05:45;;;;;;;;;;;24.00;75.60;;;;;;1990133;28;20377;-71
2022/08/04 05:06:59;;;;;;;;;;;24.00;75.60;;;;;;1998118;28;19906;-71
2022/08/04 05:08:10;;;;;;;;;;;24.00;75.50;;;;;;1998055;28;20416;-71
2022/08/04 05:09:15;;;;;;;;;;;24.00;75.60;;;;;;1998147;28;19910;-70
2022/08/04 05:10:13;;;;;;;;;;;24.00;75.50;;;;;;1997987;28;19906;-70
2022/08/04 05:11:11;;;;;;;;;;;24.00;75.40;;;;;;1997898;28;20328;-70
2022/08/04 05:12:28;;;;;;;;;;;24.00;75.40;;;;;;1997938;28;19906;-70
2022/08/04 05:13:45;;;;;;;;;;;24.00;75.40;;;;;;1997994;28;19906;-71
2022/08/04 05:14:46;;;;;;;;;;;24.00;75.30;;;;;;1998330;28;20245;-70
2022/08/04 05:15:46;;;;;;;;;;;24.00;75.50;;;;;;1998238;28;19941;-71
2022/08/04 05:16:46;;;;;;;;;;;24.00;75.50;;;;;;1989645;28;19906;-72
2022/08/04 05:17:48;;;;;;;;;;;24.00;75.50;;;;;;1989623;28;19913;-72
2022/08/04 05:18:50;;;;;;;;;;;24.00;75.40;;;;;;1998110;28;19905;-69
2022/08/04 05:19:52;;;;;;;;;;;24.00;75.30;;;;;;1998139;28;19913;-69
2022/08/04 05:20:54;;;;;;;;;;;24.00;75.40;;;;;;1989359;28;20385;-70
2022/08/04 05:22:00;;;;;;;;;;;24.00;75.30;;;;;;1989645;28;19906;-70
2022/08/04 05:23:06;;;;;;;;;;;24.00;75.20;;;;;;1997944;28;20412;-70
2022/08/04 05:24:06;;;;;;;;;;;24.00;75.20;;;;;;1998062;28;20238;-70
2022/08/04 05:25:05;;;;;;;;;;;24.00;75.20;;;;;;1998006;28;19905;-70
2022/08/04 05:26:09;;;;;;;;;;;24.00;75.20;;;;;;1998014;28;19957;-70
2022/08/04 05:27:11;;;;;;;;;;;24.00;75.30;;;;;;1997590;28;19906;-70
2022/08/04 05:28:14;;;;;;;;;;;24.00;75.10;;;;;;1998005;28;19906;-70
2022/08/04 05:29:17;;;;;;;;;;;24.00;75.20;;;;;;1997894;28;19905;-70
2022/08/04 05:30:17;;;;;;;;;;;24.00;75.20;;;;;;1989287;28;20281;-70
2022/08/04 05:31:18;;;;;;;;;;;24.00;75.10;;;;;;1989523;28;20282;-70
2022/08/04 05:32:21;;;;;;;;;;;24.00;75.20;;;;;;1997809;28;20293;-71
2022/08/04 05:33:21;;;;;;;;;;;24.00;75.10;;;;;;1997892;28;19905;-71
2022/08/04 05:34:26;;;;;;;;;;;24.00;75.10;;;;;;1997748;28;20378;-71
2022/08/04 05:35:30;;;;;;;;;;;24.00;75.00;;;;;;1997798;28;19913;-71
2022/08/04 05:36:38;;;;;;;;;;;24.00;75.10;;;;;;1997872;28;19916;-71
2022/08/04 05:37:37;;;;;;;;;;;24.00;75.00;;;;;;1997726;28;20440;-70
2022/08/04 05:38:39;;;;;;;;;;;24.00;74.90;;;;;;1997887;28;20161;-69
2022/08/04 05:39:41;;;;;;;;;;;24.00;75.00;;;;;;1997785;28;20360;-70
2022/08/04 05:40:40;;;;;;;;;;;24.00;74.90;;;;;;1997776;28;19910;-70
2022/08/04 05:41:41;;;;;;;;;;;24.00;74.70;;;;;;1997768;28;19910;-70
2022/08/04 05:42:39;;;;;;;;;;;24.00;74.70;;;;;;1998105;28;19918;-70
2022/08/04 05:43:40;;;;;;;;;;;24.10;74.90;;;;;;1997934;28;19906;-70
2022/08/04 05:44:39;;;;;;;;;;;24.00;74.90;;;;;;1997787;28;19910;-70
2022/08/04 05:45:38;;;;;;;;;;;24.00;74.80;;;;;;1997772;28;19913;-70
2022/08/04 05:46:38;;;;;;;;;;;24.00;74.80;;;;;;1997834;28;20369;-70
2022/08/04 05:47:36;;;;;;;;;;;24.10;74.90;;;;;;1997736;28;19928;-69
2022/08/04 05:48:36;;;;;;;;;;;24.10;75.00;;;;;;1997692;28;19906;-70
2022/08/04 05:49:35;;;;;;;;;;;24.00;74.80;;;;;;1997684;28;19955;-70
2022/08/04 05:50:34;;;;;;;;;;;24.00;74.70;;;;;;1997605;28;19920;-70
2022/08/04 05:51:33;;;;;;;;;;;24.00;74.80;;;;;;1997745;28;19960;-69
2022/08/04 05:52:33;;;;;;;;;;;24.00;74.80;;;;;;1997630;28;19906;-70
2022/08/04 05:53:32;;;;;;;;;;;24.10;75.60;;;;;;1997676;28;19912;-70
2022/08/04 05:54:33;;;;;;;;;;;24.10;74.80;;;;;;1997558;28;19964;-71
2022/08/04 05:55:31;;;;;;;;;;;24.00;74.50;;;;;;1997700;28;19917;-70
2022/08/04 05:56:32;;;;;;;;;;;24.10;74.60;;;;;;1989162;28;20380;-70
2022/08/04 05:57:31;;;;;;;;;;;24.10;74.70;;;;;;1989201;28;19906;-71
2022/08/04 05:58:30;;;;;;;;;;;24.00;74.60;;;;;;1989367;28;19913;-71
2022/08/04 05:59:29;;;;;;;;;;;24.00;74.70;;;;;;1997186;28;19917;-71
2022/08/04 06:00:28;;;;;;;;;;;24.10;74.80;;;;;;1997603;28;19913;-71
2022/08/04 06:01:28;;;;;;;;;;;24.10;74.90;;;;;;1989176;28;20401;-71
2022/08/04 06:02:27;;;;;;;;;;;24.10;74.80;;;;;;1989156;28;19913;-70
2022/08/04 06:03:27;;;;;;;;;;;24.10;74.80;;;;;;1997272;28;19913;-69
2022/08/04 06:04:45;;;;;;;;;;;24.10;74.70;;;;;;1989322;28;20222;-70
2022/08/04 06:05:44;;;;;;;;;;;24.10;74.80;;;;;;1991421;28;19929;-70
2022/08/04 06:06:43;;;;;;;;;;;24.10;74.70;;;;;;1989240;28;19906;-70
2022/08/04 06:07:42;;;;;;;;;;;24.10;74.70;;;;;;1981435;28;19906;-70
2022/08/04 06:08:40;;;;;;;;;;;24.10;74.60;;;;;;1988862;28;19914;-71
2022/08/04 06:09:40;;;;;;;;;;;24.10;74.70;;;;;;1997084;28;19945;-71
2022/08/04 06:10:39;;;;;;;;;;;24.10;74.50;;;;;;1997585;28;20277;-71
2022/08/04 06:11:39;;;;;;;;;;;24.10;74.60;;;;;;1997500;28;19912;-71
2022/08/04 06:12:50;;;;;;;;;;;24.10;74.60;;;;;;1997536;28;20266;-70
2022/08/04 06:13:53;;;;;;;;;;;24.10;74.50;;;;;;1997741;28;19916;-70
2022/08/04 06:14:53;;;;;;;;;;;24.10;74.50;;;;;;1997574;28;19910;-70
2022/08/04 06:15:54;;;;;;;;;;;24.10;74.50;;;;;;1997066;28;19913;-70
2022/08/04 06:16:54;;;;;;;;;;;24.10;74.50;;;;;;1997549;28;19965;-70
2022/08/04 06:17:54;;;;;;;;;;;24.10;74.50;;;;;;1988986;28;19910;-70
2022/08/04 06:18:56;;;;;;;;;;;24.10;74.50;;;;;;1989155;28;20273;-69
2022/08/04 06:19:55;;;;;;;;;;;24.10;74.60;;;;;;1989096;28;19906;-70
2022/08/04 06:20:57;;;;;;;;;;;24.10;74.60;;;;;;1989114;28;19913;-71
2022/08/04 06:21:58;;;;;;;;;;;24.10;74.50;;;;;;1989009;28;20116;-71